sensor_id;sensor_type;location;lat;lon;timestamp;temperature;humidity
6556;DHT22;3311;48.32423000;14.29074500;2023-04-25T00:00:37;14.50;64.10
6556;DHT22;3311;48.32423000;14.29074500;2023-04-25T00:03:04;14.40;64.00
6556;DHT22;3311;48.32423000;14.29074500;2023-04-25T00:05:32;14.40;64.10
6556;DHT22;3311;48.32423000;14.29074500;2023-04-25T00:07:59;14.50;64.20
6556;DHT22;3311;48.32423000;14.29074500;2023-04-25T00:10:27;14.50;64.00
6556;DHT22;3311;48.32423000;14.29074500;2023-04-25T00:12:56;14.40;64.00
6556;DHT22;3311;48.32423000;14.29074500;2023-04-25T00:15:23;14.50;63.80
6556;DHT22;3311;48.32423000;14.29074500;2023-04-25T00:17:51;14.40;63.90
6556;DHT22;3311;48.32423000;14.29074500;2023-04-25T00:20:20;14.40;64.00
6556;DHT22;3311;48.32423000;14.29074500;2023-04-25T00:22:47;14.30;63.80
6556;DHT22;3311;48.32423000;14.29074500;2023-04-25T00:25:15;14.30;63.80
6556;DHT22;3311;48.32423000;14.29074500;2023-04-25T00:27:42;14.30;64.00
6556;DHT22;3311;48.32423000;14.29074500;2023-04-25T00:30:13;14.20;64.20
6556;DHT22;3311;48.32423000;14.29074500;2023-04-25T00:32:40;14.20;64.50
6556;DHT22;3311;48.32423000;14.29074500;2023-04-25T00:35:08;14.30;64.40
6556;DHT22;3311;48.32423000;14.29074500;2023-04-25T00:37:36;14.30;64.20
6556;DHT22;3311;48.32423000;14.29074500;2023-04-25T00:40:06;14.30;64.00
6556;DHT22;3311;48.32423000;14.29074500;2023-04-25T00:42:35;14.30;63.90
6556;DHT22;3311;48.32423000;14.29074500;2023-04-25T00:45:06;14.30;64.00
6556;DHT22;3311;48.32423000;14.29074500;2023-04-25T00:47:36;14.30;63.80
6556;DHT22;3311;48.32423000;14.29074500;2023-04-25T00:50:05;14.20;63.80
6556;DHT22;3311;48.32423000;14.29074500;2023-04-25T00:52:33;14.20;63.90
6556;DHT22;3311;48.32423000;14.29074500;2023-04-25T00:55:01;14.10;63.70
6556;DHT22;3311;48.32423000;14.29074500;2023-04-25T00:57:28;14.10;63.90
6556;DHT22;3311;48.32423000;14.29074500;2023-04-25T00:59:56;14.10;63.90
6556;DHT22;3311;48.32423000;14.29074500;2023-04-25T01:02:24;14.10;63.80
6556;DHT22;3311;48.32423000;14.29074500;2023-04-25T01:04:54;14.00;63.80
6556;DHT22;3311;48.32423000;14.29074500;2023-04-25T01:07:21;14.00;63.80
6556;DHT22;3311;48.32423000;14.29074500;2023-04-25T01:09:48;14.00;63.90
6556;DHT22;3311;48.32423000;14.29074500;2023-04-25T01:12:16;14.00;63.60
6556;DHT22;3311;48.32423000;14.29074500;2023-04-25T01:14:44;14.10;63.40
6556;DHT22;3311;48.32423000;14.29074500;2023-04-25T01:17:12;14.30;62.90
6556;DHT22;3311;48.32423000;14.29074500;2023-04-25T01:19:41;14.30;62.60
6556;DHT22;3311;48.32423000;14.29074500;2023-04-25T01:22:10;14.10;62.60
6556;DHT22;3311;48.32423000;14.29074500;2023-04-25T01:24:37;14.20;62.70
6556;DHT22;3311;48.32423000;14.29074500;2023-04-25T01:27:05;14.10;62.40
6556;DHT22;3311;48.32423000;14.29074500;2023-04-25T01:29:33;14.20;62.70
6556;DHT22;3311;48.32423000;14.29074500;2023-04-25T01:32:02;14.10;62.50
6556;DHT22;3311;48.32423000;14.29074500;2023-04-25T01:34:29;14.10;62.60
6556;DHT22;3311;48.32423000;14.29074500;2023-04-25T01:36:59;14.10;62.60
6556;DHT22;3311;48.32423000;14.29074500;2023-04-25T01:39:28;14.00;62.70
6556;DHT22;3311;48.32423000;14.29074500;2023-04-25T01:41:58;14.00;63.00
6556;DHT22;3311;48.32423000;14.29074500;2023-04-25T01:44:25;14.00;63.00
6556;DHT22;3311;48.32423000;14.29074500;2023-04-25T01:46:54;14.00;63.30
6556;DHT22;3311;48.32423000;14.29074500;2023-04-25T01:49:22;13.90;63.40
6556;DHT22;3311;48.32423000;14.29074500;2023-04-25T01:51:49;13.90;63.40
6556;DHT22;3311;48.32423000;14.29074500;2023-04-25T01:54:17;13.90;63.30
6556;DHT22;3311;48.32423000;14.29074500;2023-04-25T01:56:50;14.00;63.40
6556;DHT22;3311;48.32423000;14.29074500;2023-04-25T01:59:18;13.90;63.20
6556;DHT22;3311;48.32423000;14.29074500;2023-04-25T02:01:47;13.90;63.40
6556;DHT22;3311;48.32423000;14.29074500;2023-04-25T02:04:14;13.90;63.60
6556;DHT22;3311;48.32423000;14.29074500;2023-04-25T02:06:42;13.80;63.20
6556;DHT22;3311;48.32423000;14.29074500;2023-04-25T02:09:09;13.80;63.30
6556;DHT22;3311;48.32423000;14.29074500;2023-04-25T02:11:36;13.80;63.60
6556;DHT22;3311;48.32423000;14.29074500;2023-04-25T02:14:05;13.80;63.90
6556;DHT22;3311;48.32423000;14.29074500;2023-04-25T02:16:33;13.80;64.00
6556;DHT22;3311;48.32423000;14.29074500;2023-04-25T02:19:01;13.80;63.80
6556;DHT22;3311;48.32423000;14.29074500;2023-04-25T02:21:29;13.80;63.70
6556;DHT22;3311;48.32423000;14.29074500;2023-04-25T02:23:56;13.70;63.80
6556;DHT22;3311;48.32423000;14.29074500;2023-04-25T02:26:24;13.70;64.00
6556;DHT22;3311;48.32423000;14.29074500;2023-04-25T02:28:51;13.70;63.90
6556;DHT22;3311;48.32423000;14.29074500;2023-04-25T02:31:20;13.60;63.90
6556;DHT22;3311;48.32423000;14.29074500;2023-04-25T02:33:47;13.60;64.00
6556;DHT22;3311;48.32423000;14.29074500;2023-04-25T02:36:15;13.70;64.00
6556;DHT22;3311;48.32423000;14.29074500;2023-04-25T02:38:42;13.70;63.80
6556;DHT22;3311;48.32423000;14.29074500;2023-04-25T02:41:10;13.70;63.50
6556;DHT22;3311;48.32423000;14.29074500;2023-04-25T02:43:37;13.70;63.70
6556;DHT22;3311;48.32423000;14.29074500;2023-04-25T02:46:04;13.70;63.60
6556;DHT22;3311;48.32423000;14.29074500;2023-04-25T02:48:33;13.70;63.90
6556;DHT22;3311;48.32423000;14.29074500;2023-04-25T02:51:00;13.60;63.90
6556;DHT22;3311;48.32423000;14.29074500;2023-04-25T02:53:28;13.60;63.80
6556;DHT22;3311;48.32423000;14.29074500;2023-04-25T02:55:55;13.60;63.60
6556;DHT22;3311;48.32423000;14.29074500;2023-04-25T02:58:24;13.70;63.20
6556;DHT22;3311;48.32423000;14.29074500;2023-04-25T03:00:51;13.70;63.30
6556;DHT22;3311;48.32423000;14.29074500;2023-04-25T03:03:18;13.60;63.30
6556;DHT22;3311;48.32423000;14.29074500;2023-04-25T03:05:49;13.70;63.40
6556;DHT22;3311;48.32423000;14.29074500;2023-04-25T03:08:17;13.70;63.30
6556;DHT22;3311;48.32423000;14.29074500;2023-04-25T03:10:45;13.70;63.10
6556;DHT22;3311;48.32423000;14.29074500;2023-04-25T03:13:12;13.70;63.10
6556;DHT22;3311;48.32423000;14.29074500;2023-04-25T03:15:39;13.50;63.00
6556;DHT22;3311;48.32423000;14.29074500;2023-04-25T03:18:07;13.50;63.50
6556;DHT22;3311;48.32423000;14.29074500;2023-04-25T03:20:34;13.40;63.10
6556;DHT22;3311;48.32423000;14.29074500;2023-04-25T03:23:03;13.50;63.20
6556;DHT22;3311;48.32423000;14.29074500;2023-04-25T03:25:31;13.50;62.70
6556;DHT22;3311;48.32423000;14.29074500;2023-04-25T03:27:58;13.50;62.50
6556;DHT22;3311;48.32423000;14.29074500;2023-04-25T03:30:25;13.50;62.90
6556;DHT22;3311;48.32423000;14.29074500;2023-04-25T03:32:52;13.50;62.40
6556;DHT22;3311;48.32423000;14.29074500;2023-04-25T03:35:20;13.50;62.50
6556;DHT22;3311;48.32423000;14.29074500;2023-04-25T03:37:49;13.50;62.50
6556;DHT22;3311;48.32423000;14.29074500;2023-04-25T03:40:18;13.50;62.70
6556;DHT22;3311;48.32423000;14.29074500;2023-04-25T03:42:45;13.50;62.40
6556;DHT22;3311;48.32423000;14.29074500;2023-04-25T03:45:12;13.50;62.50
6556;DHT22;3311;48.32423000;14.29074500;2023-04-25T03:47:39;13.40;62.30
6556;DHT22;3311;48.32423000;14.29074500;2023-04-25T03:50:07;13.50;62.30
6556;DHT22;3311;48.32423000;14.29074500;2023-04-25T03:52:36;13.50;62.30
6556;DHT22;3311;48.32423000;14.29074500;2023-04-25T03:55:04;13.50;62.00
6556;DHT22;3311;48.32423000;14.29074500;2023-04-25T03:57:33;13.50;62.10
6556;DHT22;3311;48.32423000;14.29074500;2023-04-25T04:00:01;13.50;61.60
6556;DHT22;3311;48.32423000;14.29074500;2023-04-25T04:02:29;13.30;61.50
6556;DHT22;3311;48.32423000;14.29074500;2023-04-25T04:04:57;13.30;62.10
6556;DHT22;3311;48.32423000;14.29074500;2023-04-25T04:07:24;13.40;62.10
6556;DHT22;3311;48.32423000;14.29074500;2023-04-25T04:09:52;13.30;62.10
6556;DHT22;3311;48.32423000;14.29074500;2023-04-25T04:12:19;13.40;62.40
6556;DHT22;3311;48.32423000;14.29074500;2023-04-25T04:14:48;13.30;62.50
6556;DHT22;3311;48.32423000;14.29074500;2023-04-25T04:17:15;13.20;62.70
6556;DHT22;3311;48.32423000;14.29074500;2023-04-25T04:19:42;13.10;62.80
6556;DHT22;3311;48.32423000;14.29074500;2023-04-25T04:22:10;13.30;62.80
6556;DHT22;3311;48.32423000;14.29074500;2023-04-25T04:24:37;13.30;62.80
6556;DHT22;3311;48.32423000;14.29074500;2023-04-25T04:27:04;13.30;62.80
6556;DHT22;3311;48.32423000;14.29074500;2023-04-25T04:29:32;13.30;62.80
6556;DHT22;3311;48.32423000;14.29074500;2023-04-25T04:32:00;13.30;63.30
6556;DHT22;3311;48.32423000;14.29074500;2023-04-25T04:34:28;13.40;64.00
6556;DHT22;3311;48.32423000;14.29074500;2023-04-25T04:36:56;13.40;64.10
6556;DHT22;3311;48.32423000;14.29074500;2023-04-25T04:39:24;13.50;64.40
6556;DHT22;3311;48.32423000;14.29074500;2023-04-25T04:41:51;13.60;64.60
6556;DHT22;3311;48.32423000;14.29074500;2023-04-25T04:44:19;13.60;65.20
6556;DHT22;3311;48.32423000;14.29074500;2023-04-25T04:46:46;13.60;66.20
6556;DHT22;3311;48.32423000;14.29074500;2023-04-25T04:49:16;13.70;67.10
6556;DHT22;3311;48.32423000;14.29074500;2023-04-25T04:51:43;13.80;66.90
6556;DHT22;3311;48.32423000;14.29074500;2023-04-25T04:54:11;13.90;66.40
6556;DHT22;3311;48.32423000;14.29074500;2023-04-25T04:56:39;13.90;66.00
6556;DHT22;3311;48.32423000;14.29074500;2023-04-25T04:59:07;13.80;66.20
6556;DHT22;3311;48.32423000;14.29074500;2023-04-25T05:01:36;13.70;65.90
6556;DHT22;3311;48.32423000;14.29074500;2023-04-25T05:04:03;13.60;66.30
6556;DHT22;3311;48.32423000;14.29074500;2023-04-25T05:06:32;13.60;66.10
6556;DHT22;3311;48.32423000;14.29074500;2023-04-25T05:08:59;13.70;66.10
6556;DHT22;3311;48.32423000;14.29074500;2023-04-25T05:11:27;13.70;66.20
6556;DHT22;3311;48.32423000;14.29074500;2023-04-25T05:13:54;13.90;65.60
6556;DHT22;3311;48.32423000;14.29074500;2023-04-25T05:16:21;14.10;65.70
6556;DHT22;3311;48.32423000;14.29074500;2023-04-25T05:18:49;14.20;65.60
6556;DHT22;3311;48.32423000;14.29074500;2023-04-25T05:21:16;14.10;65.20
6556;DHT22;3311;48.32423000;14.29074500;2023-04-25T05:23:44;14.20;65.10
6556;DHT22;3311;48.32423000;14.29074500;2023-04-25T05:26:12;14.20;65.00
6556;DHT22;3311;48.32423000;14.29074500;2023-04-25T05:28:40;14.10;65.80
6556;DHT22;3311;48.32423000;14.29074500;2023-04-25T05:31:09;14.30;66.00
6556;DHT22;3311;48.32423000;14.29074500;2023-04-25T05:33:36;14.60;65.50
6556;DHT22;3311;48.32423000;14.29074500;2023-04-25T05:36:04;14.80;64.70
6556;DHT22;3311;48.32423000;14.29074500;2023-04-25T05:38:32;15.00;64.40
6556;DHT22;3311;48.32423000;14.29074500;2023-04-25T05:41:00;15.00;63.70
6556;DHT22;3311;48.32423000;14.29074500;2023-04-25T05:43:28;15.10;63.60
6556;DHT22;3311;48.32423000;14.29074500;2023-04-25T05:45:55;15.10;63.40
6556;DHT22;3311;48.32423000;14.29074500;2023-04-25T05:48:22;15.10;63.40
6556;DHT22;3311;48.32423000;14.29074500;2023-04-25T05:50:49;15.30;63.30
6556;DHT22;3311;48.32423000;14.29074500;2023-04-25T05:53:17;15.50;62.30
6556;DHT22;3311;48.32423000;14.29074500;2023-04-25T05:55:44;15.70;61.70
6556;DHT22;3311;48.32423000;14.29074500;2023-04-25T05:58:12;15.90;61.50
6556;DHT22;3311;48.32423000;14.29074500;2023-04-25T06:00:40;16.10;60.70
6556;DHT22;3311;48.32423000;14.29074500;2023-04-25T06:03:07;16.10;60.30
6556;DHT22;3311;48.32423000;14.29074500;2023-04-25T06:05:35;16.00;60.10
6556;DHT22;3311;48.32423000;14.29074500;2023-04-25T06:08:03;16.00;61.00
6556;DHT22;3311;48.32423000;14.29074500;2023-04-25T06:10:30;16.10;60.30
6556;DHT22;3311;48.32423000;14.29074500;2023-04-25T06:12:57;16.10;60.40
6556;DHT22;3311;48.32423000;14.29074500;2023-04-25T06:15:26;16.20;60.40
6556;DHT22;3311;48.32423000;14.29074500;2023-04-25T06:17:53;16.30;60.00
6556;DHT22;3311;48.32423000;14.29074500;2023-04-25T06:20:20;16.30;60.10
6556;DHT22;3311;48.32423000;14.29074500;2023-04-25T06:22:50;16.30;59.80
6556;DHT22;3311;48.32423000;14.29074500;2023-04-25T06:25:17;16.40;59.80
6556;DHT22;3311;48.32423000;14.29074500;2023-04-25T06:27:44;16.50;59.70
6556;DHT22;3311;48.32423000;14.29074500;2023-04-25T06:30:12;16.60;59.60
6556;DHT22;3311;48.32423000;14.29074500;2023-04-25T06:32:40;16.70;59.50
6556;DHT22;3311;48.32423000;14.29074500;2023-04-25T06:35:08;16.80;59.10
6556;DHT22;3311;48.32423000;14.29074500;2023-04-25T06:37:35;17.00;59.00
6556;DHT22;3311;48.32423000;14.29074500;2023-04-25T06:40:04;17.10;58.60
6556;DHT22;3311;48.32423000;14.29074500;2023-04-25T06:42:31;17.20;58.50
6556;DHT22;3311;48.32423000;14.29074500;2023-04-25T06:44:59;17.30;58.10
6556;DHT22;3311;48.32423000;14.29074500;2023-04-25T06:47:26;17.30;57.70
6556;DHT22;3311;48.32423000;14.29074500;2023-04-25T06:49:55;17.30;57.70
6556;DHT22;3311;48.32423000;14.29074500;2023-04-25T06:52:22;17.40;57.70
6556;DHT22;3311;48.32423000;14.29074500;2023-04-25T06:54:49;17.40;57.60
6556;DHT22;3311;48.32423000;14.29074500;2023-04-25T06:57:16;17.40;57.40
6556;DHT22;3311;48.32423000;14.29074500;2023-04-25T06:59:43;17.50;57.60
6556;DHT22;3311;48.32423000;14.29074500;2023-04-25T07:02:10;17.50;57.30
6556;DHT22;3311;48.32423000;14.29074500;2023-04-25T07:04:38;17.60;58.20
6556;DHT22;3311;48.32423000;14.29074500;2023-04-25T07:07:06;17.70;57.70
6556;DHT22;3311;48.32423000;14.29074500;2023-04-25T07:09:33;17.70;57.10
6556;DHT22;3311;48.32423000;14.29074500;2023-04-25T07:12:01;17.80;57.60
6556;DHT22;3311;48.32423000;14.29074500;2023-04-25T07:14:29;17.80;57.10
6556;DHT22;3311;48.32423000;14.29074500;2023-04-25T07:16:56;17.90;57.50
6556;DHT22;3311;48.32423000;14.29074500;2023-04-25T07:19:23;17.90;57.40
6556;DHT22;3311;48.32423000;14.29074500;2023-04-25T07:21:52;17.90;57.50
6556;DHT22;3311;48.32423000;14.29074500;2023-04-25T07:24:21;18.00;57.40
6556;DHT22;3311;48.32423000;14.29074500;2023-04-25T07:26:48;18.00;57.20
6556;DHT22;3311;48.32423000;14.29074500;2023-04-25T07:29:15;18.00;57.40
6556;DHT22;3311;48.32423000;14.29074500;2023-04-25T07:31:42;18.00;57.00
6556;DHT22;3311;48.32423000;14.29074500;2023-04-25T07:34:10;18.00;56.80
6556;DHT22;3311;48.32423000;14.29074500;2023-04-25T07:36:37;18.10;57.40
6556;DHT22;3311;48.32423000;14.29074500;2023-04-25T07:39:04;18.10;57.00
6556;DHT22;3311;48.32423000;14.29074500;2023-04-25T07:41:33;18.10;57.00
6556;DHT22;3311;48.32423000;14.29074500;2023-04-25T07:44:01;18.10;57.30
6556;DHT22;3311;48.32423000;14.29074500;2023-04-25T07:46:28;18.00;57.30
6556;DHT22;3311;48.32423000;14.29074500;2023-04-25T07:48:55;17.90;56.90
6556;DHT22;3311;48.32423000;14.29074500;2023-04-25T07:51:23;18.00;57.10
6556;DHT22;3311;48.32423000;14.29074500;2023-04-25T07:53:50;18.10;57.00
6556;DHT22;3311;48.32423000;14.29074500;2023-04-25T07:56:17;18.10;57.30
6556;DHT22;3311;48.32423000;14.29074500;2023-04-25T07:58:46;18.10;57.30
6556;DHT22;3311;48.32423000;14.29074500;2023-04-25T08:01:13;18.10;57.30
6556;DHT22;3311;48.32423000;14.29074500;2023-04-25T08:03:40;18.10;57.70
6556;DHT22;3311;48.32423000;14.29074500;2023-04-25T08:06:07;18.10;57.80
6556;DHT22;3311;48.32423000;14.29074500;2023-04-25T08:08:35;18.00;57.60
6556;DHT22;3311;48.32423000;14.29074500;2023-04-25T08:11:02;17.90;57.50
6556;DHT22;3311;48.32423000;14.29074500;2023-04-25T08:13:29;18.00;57.90
6556;DHT22;3311;48.32423000;14.29074500;2023-04-25T08:15:57;18.10;57.60
6556;DHT22;3311;48.32423000;14.29074500;2023-04-25T08:18:25;18.20;57.40
6556;DHT22;3311;48.32423000;14.29074500;2023-04-25T08:20:52;18.20;57.40
6556;DHT22;3311;48.32423000;14.29074500;2023-04-25T08:23:19;18.20;57.30
6556;DHT22;3311;48.32423000;14.29074500;2023-04-25T08:25:46;18.30;57.40
6556;DHT22;3311;48.32423000;14.29074500;2023-04-25T08:28:14;18.30;57.20
6556;DHT22;3311;48.32423000;14.29074500;2023-04-25T08:30:42;18.20;57.00
6556;DHT22;3311;48.32423000;14.29074500;2023-04-25T08:33:10;18.30;57.10
6556;DHT22;3311;48.32423000;14.29074500;2023-04-25T08:35:37;18.20;57.00
6556;DHT22;3311;48.32423000;14.29074500;2023-04-25T08:38:04;18.30;57.10
6556;DHT22;3311;48.32423000;14.29074500;2023-04-25T08:40:37;18.30;57.00
6556;DHT22;3311;48.32423000;14.29074500;2023-04-25T08:43:06;18.30;56.50
6556;DHT22;3311;48.32423000;14.29074500;2023-04-25T08:45:39;18.30;56.00
6556;DHT22;3311;48.32423000;14.29074500;2023-04-25T08:48:10;18.30;56.20
6556;DHT22;3311;48.32423000;14.29074500;2023-04-25T08:50:39;18.30;56.30
6556;DHT22;3311;48.32423000;14.29074500;2023-04-25T08:53:09;18.30;56.30
6556;DHT22;3311;48.32423000;14.29074500;2023-04-25T08:55:42;18.30;56.00
6556;DHT22;3311;48.32423000;14.29074500;2023-04-25T08:58:11;18.20;55.70
6556;DHT22;3311;48.32423000;14.29074500;2023-04-25T09:00:38;18.10;56.20
6556;DHT22;3311;48.32423000;14.29074500;2023-04-25T09:03:06;18.00;56.50
6556;DHT22;3311;48.32423000;14.29074500;2023-04-25T09:05:36;18.00;56.30
6556;DHT22;3311;48.32423000;14.29074500;2023-04-25T09:08:03;18.10;56.40
6556;DHT22;3311;48.32423000;14.29074500;2023-04-25T09:10:31;18.00;56.30
6556;DHT22;3311;48.32423000;14.29074500;2023-04-25T09:13:06;18.00;55.90
6556;DHT22;3311;48.32423000;14.29074500;2023-04-25T09:15:47;18.00;56.70
6556;DHT22;3311;48.32423000;14.29074500;2023-04-25T09:18:23;18.10;56.50
6556;DHT22;3311;48.32423000;14.29074500;2023-04-25T09:20:54;18.20;56.40
6556;DHT22;3311;48.32423000;14.29074500;2023-04-25T09:23:22;18.20;56.70
6556;DHT22;3311;48.32423000;14.29074500;2023-04-25T09:25:52;18.20;56.50
6556;DHT22;3311;48.32423000;14.29074500;2023-04-25T09:28:24;18.20;56.20
6556;DHT22;3311;48.32423000;14.29074500;2023-04-25T09:30:55;18.20;55.90
6556;DHT22;3311;48.32423000;14.29074500;2023-04-25T09:33:28;18.20;55.80
6556;DHT22;3311;48.32423000;14.29074500;2023-04-25T09:36:04;18.10;55.60
6556;DHT22;3311;48.32423000;14.29074500;2023-04-25T09:38:40;18.10;55.80
6556;DHT22;3311;48.32423000;14.29074500;2023-04-25T09:41:08;18.10;55.40
6556;DHT22;3311;48.32423000;14.29074500;2023-04-25T09:43:36;18.10;55.90
6556;DHT22;3311;48.32423000;14.29074500;2023-04-25T09:46:08;18.10;56.20
6556;DHT22;3311;48.32423000;14.29074500;2023-04-25T09:48:36;18.10;55.90
6556;DHT22;3311;48.32423000;14.29074500;2023-04-25T09:51:07;18.10;55.50
6556;DHT22;3311;48.32423000;14.29074500;2023-04-25T09:53:36;18.10;55.90
6556;DHT22;3311;48.32423000;14.29074500;2023-04-25T09:56:05;18.10;55.80
6556;DHT22;3311;48.32423000;14.29074500;2023-04-25T09:58:34;18.10;55.50
6556;DHT22;3311;48.32423000;14.29074500;2023-04-25T10:01:04;18.10;55.70
6556;DHT22;3311;48.32423000;14.29074500;2023-04-25T10:03:33;18.10;55.00
6556;DHT22;3311;48.32423000;14.29074500;2023-04-25T10:06:03;18.10;55.80
6556;DHT22;3311;48.32423000;14.29074500;2023-04-25T10:08:35;18.10;55.30
6556;DHT22;3311;48.32423000;14.29074500;2023-04-25T10:11:04;18.00;55.00
6556;DHT22;3311;48.32423000;14.29074500;2023-04-25T10:13:33;18.00;55.40
6556;DHT22;3311;48.32423000;14.29074500;2023-04-25T10:16:02;18.00;55.10
6556;DHT22;3311;48.32423000;14.29074500;2023-04-25T10:18:31;17.90;54.80
6556;DHT22;3311;48.32423000;14.29074500;2023-04-25T10:21:00;17.90;55.60
6556;DHT22;3311;48.32423000;14.29074500;2023-04-25T10:23:29;17.90;55.50
6556;DHT22;3311;48.32423000;14.29074500;2023-04-25T10:25:59;17.90;55.60
6556;DHT22;3311;48.32423000;14.29074500;2023-04-25T10:28:27;18.00;55.80
6556;DHT22;3311;48.32423000;14.29074500;2023-04-25T10:30:58;18.00;54.90
6556;DHT22;3311;48.32423000;14.29074500;2023-04-25T10:33:36;18.00;54.80
6556;DHT22;3311;48.32423000;14.29074500;2023-04-25T10:36:11;17.90;54.70
6556;DHT22;3311;48.32423000;14.29074500;2023-04-25T10:38:40;17.80;54.20
6556;DHT22;3311;48.32423000;14.29074500;2023-04-25T10:41:11;17.90;54.30
6556;DHT22;3311;48.32423000;14.29074500;2023-04-25T10:43:40;17.90;54.60
6556;DHT22;3311;48.32423000;14.29074500;2023-04-25T10:46:28;17.90;54.40
6556;DHT22;3311;48.32423000;14.29074500;2023-04-25T10:48:58;17.80;53.90
6556;DHT22;3311;48.32423000;14.29074500;2023-04-25T10:51:27;17.80;54.30
6556;DHT22;3311;48.32423000;14.29074500;2023-04-25T10:54:00;17.80;54.50
6556;DHT22;3311;48.32423000;14.29074500;2023-04-25T10:56:30;17.90;54.40
6556;DHT22;3311;48.32423000;14.29074500;2023-04-25T10:59:08;17.90;54.70
6556;DHT22;3311;48.32423000;14.29074500;2023-04-25T11:01:39;17.80;54.20
6556;DHT22;3311;48.32423000;14.29074500;2023-04-25T11:04:19;17.80;54.40
6556;DHT22;3311;48.32423000;14.29074500;2023-04-25T11:06:59;17.70;54.40
6556;DHT22;3311;48.32423000;14.29074500;2023-04-25T11:09:28;17.70;54.80
6556;DHT22;3311;48.32423000;14.29074500;2023-04-25T11:11:58;17.60;54.70
6556;DHT22;3311;48.32423000;14.29074500;2023-04-25T11:14:25;17.50;55.40
6556;DHT22;3311;48.32423000;14.29074500;2023-04-25T11:16:53;17.40;55.50
6556;DHT22;3311;48.32423000;14.29074500;2023-04-25T11:19:21;17.40;55.90
6556;DHT22;3311;48.32423000;14.29074500;2023-04-25T11:21:49;17.30;56.20
6556;DHT22;3311;48.32423000;14.29074500;2023-04-25T11:24:17;17.20;56.60
6556;DHT22;3311;48.32423000;14.29074500;2023-04-25T11:26:47;17.20;56.50
6556;DHT22;3311;48.32423000;14.29074500;2023-04-25T11:29:16;17.00;56.30
6556;DHT22;3311;48.32423000;14.29074500;2023-04-25T11:31:44;16.80;57.00
6556;DHT22;3311;48.32423000;14.29074500;2023-04-25T11:34:11;16.80;57.50
6556;DHT22;3311;48.32423000;14.29074500;2023-04-25T11:36:45;16.80;57.10
6556;DHT22;3311;48.32423000;14.29074500;2023-04-25T11:39:12;16.80;57.80
6556;DHT22;3311;48.32423000;14.29074500;2023-04-25T11:41:41;17.00;58.20
6556;DHT22;3311;48.32423000;14.29074500;2023-04-25T11:44:08;17.10;58.10
6556;DHT22;3311;48.32423000;14.29074500;2023-04-25T11:46:37;17.20;58.20
6556;DHT22;3311;48.32423000;14.29074500;2023-04-25T11:49:04;17.30;57.50
6556;DHT22;3311;48.32423000;14.29074500;2023-04-25T11:51:38;17.40;57.20
6556;DHT22;3311;48.32423000;14.29074500;2023-04-25T11:54:06;17.50;56.90
6556;DHT22;3311;48.32423000;14.29074500;2023-04-25T11:56:34;17.50;57.10
6556;DHT22;3311;48.32423000;14.29074500;2023-04-25T11:59:02;17.50;57.10
6556;DHT22;3311;48.32423000;14.29074500;2023-04-25T12:01:32;17.50;56.80
6556;DHT22;3311;48.32423000;14.29074500;2023-04-25T12:04:12;17.50;56.80
6556;DHT22;3311;48.32423000;14.29074500;2023-04-25T12:06:40;17.40;56.60
6556;DHT22;3311;48.32423000;14.29074500;2023-04-25T12:09:09;17.40;56.90
6556;DHT22;3311;48.32423000;14.29074500;2023-04-25T12:11:43;17.40;56.90
6556;DHT22;3311;48.32423000;14.29074500;2023-04-25T12:14:10;17.40;57.20
6556;DHT22;3311;48.32423000;14.29074500;2023-04-25T12:16:42;17.40;57.30
6556;DHT22;3311;48.32423000;14.29074500;2023-04-25T12:19:13;17.40;57.20
6556;DHT22;3311;48.32423000;14.29074500;2023-04-25T12:21:40;17.30;57.10
6556;DHT22;3311;48.32423000;14.29074500;2023-04-25T12:24:12;17.30;56.80
6556;DHT22;3311;48.32423000;14.29074500;2023-04-25T12:26:47;17.20;56.70
6556;DHT22;3311;48.32423000;14.29074500;2023-04-25T12:29:21;17.20;56.80
6556;DHT22;3311;48.32423000;14.29074500;2023-04-25T12:31:50;17.20;56.90
6556;DHT22;3311;48.32423000;14.29074500;2023-04-25T12:34:20;17.20;56.90
6556;DHT22;3311;48.32423000;14.29074500;2023-04-25T12:36:49;17.20;57.10
6556;DHT22;3311;48.32423000;14.29074500;2023-04-25T12:39:17;17.20;57.00
6556;DHT22;3311;48.32423000;14.29074500;2023-04-25T12:41:45;17.20;56.90
6556;DHT22;3311;48.32423000;14.29074500;2023-04-25T12:44:13;17.10;56.80
6556;DHT22;3311;48.32423000;14.29074500;2023-04-25T12:46:41;17.00;57.30
6556;DHT22;3311;48.32423000;14.29074500;2023-04-25T12:49:08;16.90;57.30
6556;DHT22;3311;48.32423000;14.29074500;2023-04-25T12:51:37;16.80;57.90
6556;DHT22;3311;48.32423000;14.29074500;2023-04-25T12:54:06;16.70;58.50
6556;DHT22;3311;48.32423000;14.29074500;2023-04-25T12:56:37;16.50;58.70
6556;DHT22;3311;48.32423000;14.29074500;2023-04-25T12:59:04;16.30;59.10
6556;DHT22;3311;48.32423000;14.29074500;2023-04-25T13:01:31;16.20;59.40
6556;DHT22;3311;48.32423000;14.29074500;2023-04-25T13:03:59;16.20;59.40
6556;DHT22;3311;48.32423000;14.29074500;2023-04-25T13:06:27;16.10;59.30
6556;DHT22;3311;48.32423000;14.29074500;2023-04-25T13:08:57;16.00;59.70
6556;DHT22;3311;48.32423000;14.29074500;2023-04-25T13:11:24;16.10;59.90
6556;DHT22;3311;48.32423000;14.29074500;2023-04-25T13:13:52;16.20;60.50
6556;DHT22;3311;48.32423000;14.29074500;2023-04-25T13:16:19;16.00;61.50
6556;DHT22;3311;48.32423000;14.29074500;2023-04-25T13:18:48;16.00;62.10
6556;DHT22;3311;48.32423000;14.29074500;2023-04-25T13:21:15;16.10;62.00
6556;DHT22;3311;48.32423000;14.29074500;2023-04-25T13:23:42;16.10;62.10
6556;DHT22;3311;48.32423000;14.29074500;2023-04-25T13:26:13;16.20;62.50
6556;DHT22;3311;48.32423000;14.29074500;2023-04-25T13:28:40;16.30;61.50
6556;DHT22;3311;48.32423000;14.29074500;2023-04-25T13:31:07;16.40;60.40
6556;DHT22;3311;48.32423000;14.29074500;2023-04-25T13:33:35;16.50;60.60
6556;DHT22;3311;48.32423000;14.29074500;2023-04-25T13:36:03;16.60;60.90
6556;DHT22;3311;48.32423000;14.29074500;2023-04-25T13:38:31;16.70;61.20
6556;DHT22;3311;48.32423000;14.29074500;2023-04-25T13:40:58;16.80;60.80